createdAt,value
2023-04-05T00:01:12.277Z,102529.94
2023-04-05T00:03:41.124Z,102529.06
2023-04-05T00:06:13.404Z,102533.59
2023-04-05T00:08:41.322Z,102531.84
2023-04-05T00:11:10.795Z,102532.72
2023-04-05T00:13:41.782Z,102530.06
2023-04-05T00:16:10.043Z,102524.78
2023-04-05T00:18:38.623Z,102530.94
2023-04-05T00:21:07.193Z,102521.31
2023-04-05T00:23:38.634Z,102531.03
2023-04-05T00:26:06.839Z,102532.78
2023-04-05T00:28:36.463Z,102528.41
2023-04-05T00:31:05.063Z,102535.47
2023-04-05T00:33:33.017Z,102524.97
2023-04-05T00:36:10.672Z,102533.78
2023-04-05T00:38:38.778Z,102532.06
2023-04-05T00:41:06.964Z,102532.09
2023-04-05T00:43:36.996Z,102531.22
2023-04-05T00:46:05.618Z,102526.81
2023-04-05T00:48:34.074Z,102529.44
2023-04-05T00:51:02.016Z,102526.84
2023-04-05T00:53:30.604Z,102529.53
2023-04-05T00:55:59.115Z,102515.41
2023-04-05T00:58:27.360Z,102520.66
2023-04-05T01:01:03.829Z,102516.31
2023-04-05T01:03:34.810Z,102515.47
2023-04-05T01:06:17.434Z,102510.28
2023-04-05T01:08:53.552Z,102509.41
2023-04-05T01:11:22.341Z,102515.59
2023-04-05T01:13:51.032Z,102509.41
2023-04-05T01:16:20.676Z,102519.09
2023-04-05T01:18:48.578Z,102506.75
2023-04-05T01:21:38.214Z,102497.97
2023-04-05T01:24:17.414Z,102512.09
2023-04-05T01:26:57.760Z,102504.19
2023-04-05T01:29:46.510Z,102506.84
2023-04-05T01:32:23.040Z,102497.22
2023-04-05T01:34:55.167Z,102492.84
2023-04-05T01:37:28.864Z,102489.31
2023-04-05T01:39:57.154Z,102489.38
2023-04-05T01:42:26.781Z,102485.91
2023-04-05T01:44:57.726Z,102478.03
2023-04-05T01:47:25.916Z,102484.16
2023-04-05T01:49:53.813Z,102473.63
2023-04-05T01:52:21.877Z,102477.09
2023-04-05T01:54:49.839Z,102470.91
2023-04-05T01:57:17.799Z,102462.97
2023-04-05T01:59:45.735Z,102459.50
2023-04-05T02:02:14.980Z,102466.53
2023-04-05T02:04:43.600Z,102456.88
2023-04-05T02:07:11.545Z,102464.81
2023-04-05T02:09:39.398Z,102458.69
2023-04-05T02:12:07.425Z,102462.19
2023-04-05T02:14:36.655Z,102460.50
2023-04-05T02:17:04.634Z,102462.25
2023-04-05T02:19:37.360Z,102460.47
2023-04-05T02:22:05.297Z,102453.44
2023-04-05T02:24:33.426Z,102447.28
2023-04-05T02:27:01.559Z,102457.84
2023-04-05T02:29:29.508Z,102455.25
2023-04-05T02:31:57.423Z,102455.28
2023-04-05T02:34:26.296Z,102456.19
2023-04-05T02:36:56.113Z,102461.44
2023-04-05T02:39:24.479Z,102451.81
2023-04-05T02:41:52.364Z,102454.50
2023-04-05T02:44:20.430Z,102459.81
2023-04-05T02:46:48.675Z,102462.50
2023-04-05T02:49:16.789Z,102460.72
2023-04-05T02:51:44.921Z,102452.81
2023-04-05T02:54:14.651Z,102449.31
2023-04-05T02:56:42.932Z,102450.22
2023-04-05T02:59:11.043Z,102451.94
2023-04-05T03:01:44.476Z,102450.22
2023-04-05T03:04:14.682Z,102455.47
2023-04-05T03:06:46.455Z,102444.97
2023-04-05T03:09:15.852Z,102448.47
2023-04-05T03:11:43.933Z,102450.25
2023-04-05T03:14:12.524Z,102445.88
2023-04-05T03:16:40.650Z,102448.50
2023-04-05T03:19:09.186Z,102444.09
2023-04-05T03:21:37.284Z,102446.72
2023-04-05T03:24:05.810Z,102443.25
2023-04-05T03:26:35.797Z,102443.25
2023-04-05T03:29:03.969Z,102423.09
2023-04-05T03:31:34.820Z,102434.44
2023-04-05T03:34:02.853Z,102437.09
2023-04-05T03:36:42.572Z,102434.47
2023-04-05T03:39:11.280Z,102429.16
2023-04-05T03:41:43.868Z,102434.44
2023-04-05T03:44:12.160Z,102432.66
2023-04-05T03:46:40.677Z,102431.75
2023-04-05T03:49:10.900Z,102431.75
2023-04-05T03:51:38.997Z,102434.38
2023-04-05T03:54:07.632Z,102439.66
2023-04-05T03:56:36.350Z,102436.16
2023-04-05T03:59:06.196Z,102435.22
2023-04-05T04:01:34.180Z,102434.34
2023-04-05T04:04:02.194Z,102427.28
2023-04-05T04:06:30.923Z,102437.81
2023-04-05T04:08:59.004Z,102426.41
2023-04-05T04:11:27.306Z,102423.75
2023-04-05T04:13:55.287Z,102429.91
2023-04-05T04:16:26.022Z,102429.00
2023-04-05T04:18:56.079Z,102420.25
2023-04-05T04:21:25.437Z,102422.00
2023-04-05T04:23:53.649Z,102421.09
2023-04-05T04:26:27.069Z,102426.41
2023-04-05T04:28:55.116Z,102421.16
2023-04-05T04:31:25.236Z,102413.19
2023-04-05T04:33:53.516Z,102417.63
2023-04-05T04:36:35.128Z,102414.94
2023-04-05T04:39:06.375Z,102421.97
2023-04-05T04:41:36.159Z,102411.41
2023-04-05T04:44:04.445Z,102410.50
2023-04-05T04:46:42.909Z,102412.25
2023-04-05T04:49:11.329Z,102410.47
2023-04-05T04:51:40.091Z,102406.03
2023-04-05T04:54:08.993Z,102409.53
2023-04-05T04:56:36.925Z,102409.50
2023-04-05T04:59:04.906Z,102406.84
2023-04-05T05:01:35.444Z,102408.66
2023-04-05T05:04:04.563Z,102406.91
2023-04-05T05:06:36.752Z,102403.34
2023-04-05T05:09:04.986Z,102406.75
2023-04-05T05:11:33.445Z,102408.44
2023-04-05T05:14:01.349Z,102414.69
2023-04-05T05:16:32.052Z,102408.47
2023-04-05T05:19:01.615Z,102402.22
2023-04-05T05:21:32.129Z,102406.50
2023-04-05T05:24:00.138Z,102408.31
2023-04-05T05:26:28.217Z,102402.06
2023-04-05T05:28:56.503Z,102407.16
2023-04-05T05:31:24.940Z,102409.03
2023-04-05T05:33:53.141Z,102400.22
2023-04-05T05:36:23.350Z,102403.53
2023-04-05T05:38:54.303Z,102397.19
2023-04-05T05:41:24.658Z,102400.75
2023-04-05T05:43:54.011Z,102398.25
2023-04-05T05:46:22.337Z,102391.19
2023-04-05T05:48:50.613Z,102388.44
2023-04-05T05:51:18.688Z,102380.59
2023-04-05T05:53:48.393Z,102382.31
2023-04-05T05:56:16.376Z,102378.59
2023-04-05T05:58:44.820Z,102380.97
2023-04-05T06:01:13.319Z,102376.47
2023-04-05T06:03:41.740Z,102367.66
2023-04-05T06:06:11.288Z,102370.19
2023-04-05T06:08:39.471Z,102363.75
2023-04-05T06:11:08.841Z,102369.72
2023-04-05T06:13:37.879Z,102371.53
2023-04-05T06:16:06.578Z,102372.34
2023-04-05T06:18:34.581Z,102376.69
2023-04-05T06:21:02.675Z,102378.16
2023-04-05T06:23:30.844Z,102377.75
2023-04-05T06:25:58.812Z,102373.91
2023-04-05T06:28:28.770Z,102374.69
2023-04-05T06:30:59.306Z,102372.91
2023-04-05T06:33:27.844Z,102379.38
2023-04-05T06:35:56.725Z,102380.81
2023-04-05T06:38:24.737Z,102382.59
2023-04-05T06:40:52.625Z,102386.78
2023-04-05T06:43:20.675Z,102384.97
2023-04-05T06:45:50.294Z,102384.97
2023-04-05T06:48:18.402Z,102387.66
2023-04-05T06:50:46.365Z,102387.53
2023-04-05T06:53:18.305Z,102379.25
2023-04-05T06:55:50.520Z,102381.59
2023-04-05T06:58:18.633Z,102380.00
2023-04-05T07:00:47.372Z,102375.78
2023-04-05T07:03:16.833Z,102389.53
2023-04-05T07:05:53.210Z,102385.84
2023-04-05T07:08:22.181Z,102392.00
2023-04-05T07:10:51.293Z,102390.06
2023-04-05T07:13:21.135Z,102388.16
2023-04-05T07:15:49.258Z,102391.72
2023-04-05T07:18:19.250Z,102401.69
2023-04-05T07:20:48.900Z,102390.59
2023-04-05T07:23:18.281Z,102398.22
2023-04-05T07:25:46.457Z,102389.63
2023-04-05T07:28:14.528Z,102380.28
2023-04-05T07:30:42.554Z,102378.56
2023-04-05T07:33:11.195Z,102373.84
2023-04-05T07:35:43.596Z,102360.25
2023-04-05T07:38:11.674Z,102358.47
2023-04-05T07:40:39.905Z,102359.34
2023-04-05T07:43:10.399Z,102354.09
2023-04-05T07:45:38.296Z,102355.88
2023-04-05T07:48:06.468Z,102345.72
2023-04-05T07:50:36.365Z,102346.66
2023-04-05T07:53:05.758Z,102352.63
2023-04-05T07:55:33.958Z,102341.44
2023-04-05T07:58:04.496Z,102334.94
2023-04-05T08:00:32.398Z,102332.19
2023-04-05T08:03:02.041Z,102331.44
2023-04-05T08:05:30.595Z,102333.06
2023-04-05T08:07:59.156Z,102332.91
2023-04-05T08:10:28.475Z,102331.84
2023-04-05T08:12:56.445Z,102329.63
2023-04-05T08:15:24.386Z,102323.00
2023-04-05T08:17:52.486Z,102320.75
2023-04-05T08:20:20.440Z,102318.88
2023-04-05T08:22:48.585Z,102316.53
2023-04-05T08:25:16.536Z,102315.59
2023-04-05T08:27:46.130Z,102311.75
2023-04-05T08:30:14.178Z,102309.09
2023-04-05T08:32:42.236Z,102313.97
2023-04-05T08:35:10.961Z,102312.53
2023-04-05T08:37:38.767Z,102303.88
2023-04-05T08:40:08.561Z,102307.16
2023-04-05T08:42:41.590Z,102300.97
2023-04-05T08:45:12.733Z,102305.63
2023-04-05T08:47:40.848Z,102301.34
2023-04-05T08:50:13.989Z,102304.53
2023-04-05T08:52:43.420Z,102303.69
2023-04-05T08:55:11.804Z,102294.53
2023-04-05T08:57:43.529Z,102297.75
2023-04-05T09:00:14.471Z,102294.59
2023-04-05T09:02:46.213Z,102296.16
2023-04-05T09:05:15.213Z,102296.75
2023-04-05T09:07:44.183Z,102284.56
2023-04-05T09:10:15.121Z,102287.47
2023-04-05T09:12:43.146Z,102293.63
2023-04-05T09:15:13.017Z,102287.59
2023-04-05T09:17:44.924Z,102285.00
2023-04-05T09:20:13.020Z,102290.88
2023-04-05T09:22:51.374Z,102292.41
2023-04-05T09:25:39.736Z,102287.94
2023-04-05T09:28:08.176Z,102298.19
2023-04-05T09:30:38.373Z,102296.69
2023-04-05T09:33:10.444Z,102305.06
2023-04-05T09:35:38.978Z,102293.06
2023-04-05T09:38:08.415Z,102291.50
2023-04-05T09:40:48.369Z,102291.91
2023-04-05T09:43:40.028Z,102303.75
2023-04-05T09:46:29.831Z,102296.38
2023-04-05T09:48:58.173Z,102294.03
2023-04-05T09:51:34.060Z,102286.63
2023-04-05T09:54:04.833Z,102290.97
2023-04-05T09:56:36.048Z,102284.78
2023-04-05T09:59:07.872Z,102277.19
2023-04-05T10:01:41.006Z,102286.22
2023-04-05T10:04:10.187Z,102281.16
2023-04-05T10:06:40.106Z,102272.63
2023-04-05T10:09:11.284Z,102275.44
2023-04-05T10:11:40.499Z,102280.72
2023-04-05T10:14:11.485Z,102272.16
2023-04-05T10:16:51.772Z,102271.69
2023-04-05T10:19:28.025Z,102258.97
2023-04-05T10:22:01.580Z,102265.88
2023-04-05T10:24:36.793Z,102259.81
2023-04-05T10:27:10.218Z,102263.28
2023-04-05T10:29:48.854Z,102254.66
2023-04-05T10:32:28.602Z,102250.19
2023-04-05T10:35:01.932Z,102247.97
2023-04-05T10:37:40.230Z,102238.41
2023-04-05T10:40:10.512Z,102236.84
2023-04-05T10:42:43.270Z,102233.13
2023-04-05T10:45:15.536Z,102233.06
2023-04-05T10:47:51.627Z,102242.03
2023-04-05T10:50:23.763Z,102233.84
2023-04-05T10:52:52.606Z,102232.66
2023-04-05T10:55:21.986Z,102228.00
2023-04-05T10:57:51.480Z,102233.66
2023-04-05T11:00:20.544Z,102237.44
2023-04-05T11:02:54.902Z,102234.03
2023-04-05T11:05:36.088Z,102229.06
2023-04-05T11:08:08.368Z,102222.91
2023-04-05T11:10:38.029Z,102226.09
2023-04-05T11:13:10.841Z,102223.63
2023-04-05T11:15:39.232Z,102214.81
2023-04-05T11:18:11.170Z,102212.50
2023-04-05T11:20:48.442Z,102215.03
2023-04-05T11:23:20.508Z,102216.19
2023-04-05T11:25:52.815Z,102218.44
2023-04-05T11:28:25.892Z,102211.66
2023-04-05T11:30:57.155Z,102211.72
2023-04-05T11:33:40.003Z,102207.88
2023-04-05T11:36:08.888Z,102205.78
2023-04-05T11:38:36.860Z,102199.53
2023-04-05T11:41:12.486Z,102191.88
2023-04-05T11:43:42.268Z,102188.34
2023-04-05T11:46:10.443Z,102189.69
2023-04-05T11:48:42.138Z,102183.94
2023-04-05T11:51:11.563Z,102185.06
2023-04-05T11:53:39.832Z,102181.91
2023-04-05T11:56:10.180Z,102175.91
2023-04-05T11:58:40.929Z,102169.75
2023-04-05T12:01:10.317Z,102177.59
2023-04-05T12:03:39.754Z,102166.69
2023-04-05T12:06:09.034Z,102173.19
2023-04-05T12:08:42.590Z,102169.53
2023-04-05T12:11:12.302Z,102160.28
2023-04-05T12:13:40.724Z,102164.34
2023-04-05T12:16:13.103Z,102158.75
2023-04-05T12:18:42.405Z,102154.94
2023-04-05T12:21:12.564Z,102151.16
2023-04-05T12:23:40.637Z,102152.91
2023-04-05T12:26:09.664Z,102160.75
2023-04-05T12:28:54.122Z,102152.38
2023-04-05T12:31:44.930Z,102150.19
2023-04-05T12:34:15.965Z,102144.34
2023-04-05T12:36:46.183Z,102141.16
2023-04-05T12:39:14.067Z,102135.63
2023-04-05T12:41:43.379Z,102141.47
2023-04-05T12:44:18.978Z,102137.31
2023-04-05T12:46:48.070Z,102134.56
2023-04-05T12:49:19.448Z,102118.63
2023-04-05T12:51:48.876Z,102123.47
2023-04-05T12:54:22.214Z,102118.91
2023-04-05T12:56:53.205Z,102114.13
2023-04-05T12:59:21.315Z,102111.47
2023-04-05T13:01:49.874Z,102111.06
2023-04-05T13:04:19.842Z,102108.13
2023-04-05T13:06:48.232Z,102105.25
2023-04-05T13:09:16.210Z,102098.19
2023-04-05T13:11:44.282Z,102099.34
2023-04-05T13:14:12.253Z,102096.69
2023-04-05T13:16:40.249Z,102097.88
2023-04-05T13:19:08.552Z,102092.75
2023-04-05T13:21:38.036Z,102098.78
2023-04-05T13:24:06.310Z,102089.53
2023-04-05T13:26:34.997Z,102095.69
2023-04-05T13:29:03.867Z,102093.59
2023-04-05T13:31:33.672Z,102088.56
2023-04-05T13:34:01.896Z,102091.53
2023-04-05T13:36:29.743Z,102083.91
2023-04-05T13:38:58.973Z,102077.91
2023-04-05T13:41:27.375Z,102084.28
2023-04-05T13:43:55.287Z,102080.19
2023-04-05T13:46:23.261Z,102078.75
2023-04-05T13:48:51.412Z,102075.94
2023-04-05T13:51:19.389Z,102075.63
2023-04-05T13:53:47.350Z,102071.44
2023-04-05T13:56:16.768Z,102075.03
2023-04-05T13:58:45.182Z,102069.88
2023-04-05T14:01:13.407Z,102071.75
2023-04-05T14:03:41.692Z,102070.66
2023-04-05T14:06:09.725Z,102068.50
2023-04-05T14:08:37.643Z,102064.34
2023-04-05T14:11:05.796Z,102066.81
2023-04-05T14:13:35.127Z,102064.94
2023-04-05T14:16:06.361Z,102067.13
2023-04-05T14:18:34.484Z,102071.28
2023-04-05T14:21:02.628Z,102060.47
2023-04-05T14:23:32.715Z,102066.38
2023-04-05T14:26:01.162Z,102064.41
2023-04-05T14:28:29.084Z,102067.31
2023-04-05T14:30:59.619Z,102061.16
2023-04-05T14:33:28.157Z,102059.44
2023-04-05T14:35:57.484Z,102058.34
2023-04-05T14:38:26.365Z,102053.41
2023-04-05T14:40:58.209Z,102052.22
2023-04-05T14:43:26.897Z,102049.13
2023-04-05T14:45:57.633Z,102049.06
2023-04-05T14:48:28.241Z,102051.03
2023-04-05T14:50:58.454Z,102044.47
2023-04-05T14:53:26.796Z,102046.69
2023-04-05T14:55:55.087Z,102042.69
2023-04-05T14:58:23.548Z,102042.94
2023-04-05T15:00:52.035Z,102036.16
2023-04-05T15:03:24.170Z,102028.25
2023-04-05T15:05:54.647Z,102023.63
2023-04-05T15:08:22.803Z,102031.03
2023-04-05T15:10:51.090Z,102026.31
2023-04-05T15:13:22.018Z,102030.47
2023-04-05T15:15:50.284Z,102022.59
2023-04-05T15:18:18.322Z,102025.81
2023-04-05T15:20:46.614Z,102025.69
2023-04-05T15:23:27.614Z,102029.31
2023-04-05T15:25:55.863Z,102032.66
2023-04-05T15:28:23.884Z,102026.88
2023-04-05T15:30:52.420Z,102021.94
2023-04-05T15:33:22.438Z,102027.81
2023-04-05T15:35:57.091Z,102021.69
2023-04-05T15:38:27.416Z,102030.22
2023-04-05T15:40:59.113Z,102023.28
2023-04-05T15:43:27.172Z,102024.75
2023-04-05T15:45:55.224Z,102020.06
2023-04-05T15:48:23.821Z,102010.06
2023-04-05T15:50:51.855Z,102007.91
2023-04-05T15:53:20.266Z,102010.16
2023-04-05T15:55:50.259Z,102000.81
2023-04-05T15:58:18.154Z,101997.56
2023-04-05T16:00:46.352Z,101999.63
2023-04-05T16:03:14.614Z,102007.06
2023-04-05T16:05:42.859Z,102003.59
2023-04-05T16:08:11.460Z,101995.16
2023-04-05T16:10:39.438Z,101993.81
2023-04-05T16:13:08.795Z,101990.56
2023-04-05T16:15:36.712Z,101993.44
2023-04-05T16:18:09.236Z,101984.44
2023-04-05T16:20:37.487Z,101984.56
2023-04-05T16:23:10.301Z,101992.72
2023-04-05T16:25:38.301Z,101988.09
2023-04-05T16:28:07.443Z,101988.63
2023-04-05T16:30:39.840Z,101987.59
2023-04-05T16:33:07.991Z,101984.44
2023-04-05T16:35:36.054Z,101982.75
2023-04-05T16:38:07.491Z,101989.69
2023-04-05T16:40:35.677Z,101987.41
2023-04-05T16:43:04.631Z,101981.88
2023-04-05T16:45:36.846Z,101979.38
2023-04-05T16:48:08.845Z,101980.97
2023-04-05T16:50:37.447Z,101978.13
2023-04-05T16:53:08.663Z,101967.31
2023-04-05T16:55:39.713Z,101980.00
2023-04-05T16:58:07.990Z,101972.31
2023-04-05T17:00:37.354Z,101967.78
2023-04-05T17:03:09.986Z,101971.75
2023-04-05T17:05:38.438Z,101973.28
2023-04-05T17:08:06.434Z,101966.56
2023-04-05T17:10:36.325Z,101971.91
2023-04-05T17:13:07.104Z,101970.69
2023-04-05T17:15:35.039Z,101977.25
2023-04-05T17:18:05.717Z,101978.97
2023-04-05T17:20:35.178Z,101979.13
2023-04-05T17:23:06.281Z,101975.22
2023-04-05T17:25:34.355Z,101978.97
2023-04-05T17:28:06.887Z,101982.44
2023-04-05T17:30:34.792Z,101981.06
2023-04-05T17:33:03.365Z,101977.97
2023-04-05T17:35:31.423Z,101981.03
2023-04-05T17:38:04.450Z,101982.91
2023-04-05T17:40:32.480Z,101988.28
2023-04-05T17:43:00.788Z,101980.19
2023-04-05T17:45:28.784Z,101987.22
2023-04-05T17:47:56.838Z,101980.44
2023-04-05T17:50:25.118Z,101984.16
2023-04-05T17:52:53.085Z,101987.56
2023-04-05T17:55:22.501Z,101995.63
2023-04-05T17:57:50.443Z,101992.72
2023-04-05T18:00:19.153Z,101989.97
2023-04-05T18:02:47.131Z,101996.03
2023-04-05T18:05:15.619Z,101989.47
2023-04-05T18:07:44.117Z,101992.13
2023-04-05T18:10:12.682Z,101991.25
2023-04-05T18:12:41.963Z,101991.47
2023-04-05T18:15:10.364Z,102004.88
2023-04-05T18:17:38.430Z,101999.13
2023-04-05T18:20:10.098Z,101997.25
2023-04-05T18:22:38.224Z,102001.81
2023-04-05T18:25:08.663Z,101997.13
2023-04-05T18:27:36.844Z,101995.44
2023-04-05T18:30:09.670Z,102006.91
2023-04-05T18:32:37.882Z,102011.44
2023-04-05T18:35:06.537Z,102009.97
2023-04-05T18:37:34.565Z,102008.41
2023-04-05T18:40:05.078Z,102014.91
2023-04-05T18:42:33.320Z,102014.94
2023-04-05T18:45:01.534Z,102022.69
2023-04-05T18:47:30.886Z,102022.69
2023-04-05T18:49:58.830Z,102019.06
2023-04-05T18:52:33.340Z,102018.03
2023-04-05T18:55:01.562Z,102022.81
2023-04-05T18:57:29.494Z,102024.31
2023-04-05T18:59:57.539Z,102025.34
2023-04-05T19:02:25.519Z,102019.88
2023-04-05T19:04:55.593Z,102024.03
2023-04-05T19:07:23.824Z,102027.34
2023-04-05T19:09:51.718Z,102033.34
2023-04-05T19:12:19.660Z,102038.25
2023-04-05T19:14:47.688Z,102038.13
2023-04-05T19:17:18.396Z,102035.91
2023-04-05T19:19:46.364Z,102042.06
2023-04-05T19:22:15.814Z,102049.16
2023-04-05T19:24:45.285Z,102053.88
2023-04-05T19:27:13.240Z,102040.53
2023-04-05T19:29:41.283Z,102041.47
2023-04-05T19:32:12.055Z,102048.91
2023-04-05T19:34:40.054Z,102049.72
2023-04-05T19:37:11.743Z,102053.47
2023-04-05T19:39:42.479Z,102051.31
2023-04-05T19:42:11.571Z,102052.97
2023-04-05T19:44:57.732Z,102051.31
2023-04-05T19:47:26.879Z,102057.13
2023-04-05T19:49:57.299Z,102049.31
2023-04-05T19:52:36.895Z,102045.63
2023-04-05T19:55:33.156Z,102044.56
2023-04-05T19:58:10.232Z,102047.44
2023-04-05T20:00:42.278Z,102045.94
2023-04-05T20:03:28.916Z,102045.16
2023-04-05T20:06:05.641Z,102042.50
2023-04-05T20:08:36.228Z,102039.22
2023-04-05T20:11:10.920Z,102032.22
2023-04-05T20:13:47.405Z,102028.22
2023-04-05T20:16:16.635Z,102039.44
2023-04-05T20:18:51.380Z,102037.00
2023-04-05T20:21:20.230Z,102038.78
2023-04-05T20:23:48.128Z,102041.78
2023-04-05T20:26:18.926Z,102033.59
2023-04-05T20:28:54.266Z,102030.75
2023-04-05T20:31:24.305Z,102025.91
2023-04-05T20:33:54.807Z,102027.69
2023-04-05T20:36:24.977Z,102027.41
2023-04-05T20:38:52.889Z,102025.66
2023-04-05T20:41:22.265Z,102029.19
2023-04-05T20:43:50.505Z,102025.50
2023-04-05T20:46:18.781Z,102019.31
2023-04-05T20:48:47.497Z,102021.91
2023-04-05T20:51:17.078Z,102016.81
2023-04-05T20:53:45.052Z,102017.00
2023-04-05T20:56:13.460Z,102014.47
2023-04-05T20:58:43.710Z,102020.06
2023-04-05T21:01:11.950Z,102009.38
2023-04-05T21:03:41.555Z,102009.47
2023-04-05T21:06:10.846Z,102011.22
2023-04-05T21:08:41.339Z,102006.13
2023-04-05T21:11:10.876Z,101999.06
2023-04-05T21:13:39.180Z,101999.81
2023-04-05T21:16:09.674Z,102004.31
2023-04-05T21:18:39.112Z,102004.66
2023-04-05T21:21:07.337Z,101995.84
2023-04-05T21:23:35.751Z,101995.91
2023-04-05T21:26:04.501Z,101986.28
2023-04-05T21:28:32.805Z,101990.75
2023-04-05T21:31:01.007Z,101991.50
2023-04-05T21:33:30.668Z,101986.38
2023-04-05T21:35:58.819Z,101983.88
2023-04-05T21:38:27.211Z,101984.78
2023-04-05T21:40:55.814Z,101988.13
2023-04-05T21:43:26.108Z,101992.69
2023-04-05T21:45:54.085Z,101990.88
2023-04-05T21:48:22.162Z,101986.44
2023-04-05T21:50:51.557Z,101982.94
2023-04-05T21:53:19.887Z,101985.72
2023-04-05T21:55:48.182Z,101984.78
2023-04-05T21:58:16.641Z,101981.25
2023-04-05T22:00:44.925Z,101983.06
2023-04-05T22:03:13.134Z,101984.06
2023-04-05T22:05:41.864Z,101981.47
2023-04-05T22:08:11.736Z,101983.34
2023-04-05T22:10:40.101Z,101978.97
2023-04-05T22:13:07.997Z,101984.41
2023-04-05T22:15:35.941Z,101985.28
2023-04-05T22:18:05.698Z,101983.84
2023-04-05T22:20:33.952Z,101979.38
2023-04-05T22:23:02.030Z,101977.50
2023-04-05T22:25:34.287Z,101979.41
2023-04-05T22:28:02.263Z,101977.75
2023-04-05T22:30:43.817Z,101970.69
2023-04-05T22:33:13.804Z,101975.25
2023-04-05T22:35:42.725Z,101972.66
2023-04-05T22:38:10.919Z,101973.94
2023-04-05T22:40:40.913Z,101956.28
2023-04-05T22:43:09.855Z,101973.31
2023-04-05T22:45:37.840Z,101974.72
2023-04-05T22:48:06.590Z,101967.63
2023-04-05T22:50:34.823Z,101968.47
2023-04-05T22:53:02.926Z,101968.41
2023-04-05T22:55:31.339Z,101975.00
2023-04-05T22:58:01.306Z,101975.00
2023-04-05T23:00:30.965Z,101975.06
2023-04-05T23:02:58.943Z,101966.28
2023-04-05T23:05:27.171Z,101972.44
2023-04-05T23:07:55.213Z,101972.56
2023-04-05T23:10:23.587Z,101964.84
2023-04-05T23:12:51.632Z,101968.38
2023-04-05T23:15:21.289Z,101965.03
2023-04-05T23:17:50.271Z,101966.19
2023-04-05T23:20:18.446Z,101968.00
2023-04-05T23:22:46.550Z,101965.47
2023-04-05T23:25:14.671Z,101959.63
2023-04-05T23:27:42.846Z,101961.56
2023-04-05T23:30:11.772Z,101958.97
2023-04-05T23:32:41.504Z,101957.44
2023-04-05T23:35:10.577Z,101951.34
2023-04-05T23:37:38.513Z,101953.16
2023-04-05T23:40:08.303Z,101950.91
2023-04-05T23:42:36.410Z,101942.78
2023-04-05T23:45:07.343Z,101946.28
2023-04-05T23:47:37.326Z,101943.56
2023-04-05T23:50:08.187Z,101940.19
2023-04-05T23:52:36.311Z,101937.44
2023-04-05T23:55:04.503Z,101935.69
2023-04-05T23:57:32.669Z,101937.66
